FDMS/MTS METAR and TAF weather

Enter ICAO airport designator
Station Type Date Time Source
FDMS METAR 2018/01/22 14:00 UTC NOAA

FDMS 221400Z 03004KT 9999 SCT035 27/15 Q1015 NOSIG


Station Type Date Time Source
FDMS Decoded METAR 2018/01/22 14:00 UTC NOAA

Manzini / Matsapa Airport, Swaziland (FDMS) 26-32S 031-18E
Jan 22, 2018 - 09:00 AM EST / 2018.01.22 1400 UTC
Wind: from the NNE (030 degrees) at 5 MPH (4 KT):0
Visibility: greater than 7 mile(s):0
Sky conditions: partly cloudy
Temperature: 80 F (27 C)
Dew Point: 59 F (15 C)
Relative Humidity: 47%
Pressure (altimeter): 29.97 in. Hg (1015 hPa)
ob: FDMS 221400Z 03004KT 9999 SCT035 27/15 Q1015 NOSIG
cycle: 14

Station Type Date Time Source
FDMS TAF 2017/11/24 09:00 UTC NOAA

TAF FDMS 240700Z 2409/2418 09004KT 9999 BKN035
BECMG 2410/2412 SCT040 PROB30
TEMPO 6000 TSRA BKN025 SCT035CB


Example: see airport list